createdAt,value
2023-04-08T06:29:25.442Z,94.60
2023-04-08T06:31:53.125Z,94.40
2023-04-08T06:34:20.582Z,94.50
2023-04-08T06:36:48.542Z,94.20
2023-04-08T06:39:17.112Z,94.10
2023-04-08T06:41:44.632Z,93.90
2023-04-08T06:44:12.118Z,93.90
2023-04-08T06:46:39.791Z,93.90
2023-04-08T06:49:07.241Z,93.90
2023-04-08T06:51:34.790Z,93.90
2023-04-08T06:54:02.293Z,93.20
2023-04-08T06:56:29.748Z,93.40
2023-04-08T06:58:57.229Z,93.50
2023-04-08T07:01:25.613Z,93.20
2023-04-08T07:03:53.317Z,93.10
2023-04-08T07:06:21.161Z,93.10
2023-04-08T07:08:48.878Z,93.20
2023-04-08T07:11:16.885Z,92.90
2023-04-08T07:13:44.474Z,93.00
2023-04-08T07:16:12.048Z,93.00
2023-04-08T07:18:41.518Z,92.60
2023-04-08T07:21:08.931Z,92.70
2023-04-08T07:23:36.376Z,92.60
2023-04-08T07:26:07.106Z,92.40
2023-04-08T07:28:34.574Z,92.30
2023-04-08T07:31:18.168Z,92.20
2023-04-08T07:33:47.480Z,92.20
2023-04-08T07:36:15.775Z,91.90
2023-04-08T07:38:43.249Z,91.80
2023-04-08T07:41:10.878Z,91.80
2023-04-08T07:43:39.180Z,92.00
2023-04-08T07:46:08.068Z,92.00
2023-04-08T07:48:36.050Z,91.70
2023-04-08T07:51:11.153Z,91.70
2023-04-08T07:53:40.662Z,91.60
2023-04-08T07:56:18.730Z,91.50
2023-04-08T07:58:48.106Z,91.60
2023-04-08T08:01:22.651Z,91.40
2023-04-08T08:03:52.895Z,91.50
2023-04-08T08:06:22.206Z,91.30
2023-04-08T08:08:49.785Z,91.40
2023-04-08T08:11:18.259Z,91.20
2023-04-08T08:13:46.127Z,91.00
2023-04-08T08:16:13.733Z,90.60
2023-04-08T08:18:41.775Z,90.50
2023-04-08T08:21:09.817Z,90.30
2023-04-08T08:23:37.923Z,90.70
2023-04-08T08:26:10.352Z,90.50
2023-04-08T08:28:39.648Z,91.20
2023-04-08T08:31:07.617Z,90.50
2023-04-08T08:33:35.724Z,90.40
2023-04-08T08:36:05.367Z,90.30
2023-04-08T08:38:33.194Z,89.70
2023-04-08T08:41:02.170Z,89.10
2023-04-08T08:43:33.531Z,88.80
2023-04-08T08:46:01.761Z,89.00
2023-04-08T08:48:29.424Z,89.20
2023-04-08T08:50:57.621Z,90.00
2023-04-08T08:53:35.167Z,88.70
2023-04-08T08:56:17.959Z,88.20
2023-04-08T08:58:47.926Z,88.90
2023-04-08T09:01:34.922Z,89.30
2023-04-08T09:04:20.374Z,88.20
2023-04-08T09:07:13.901Z,87.40
2023-04-08T09:09:52.907Z,89.20
2023-04-08T09:12:20.769Z,87.60
2023-04-08T09:14:48.720Z,88.30
2023-04-08T09:17:17.345Z,86.80
2023-04-08T09:20:12.932Z,86.00
2023-04-08T09:23:03.036Z,85.80
2023-04-08T09:25:34.010Z,87.10
2023-04-08T09:28:03.066Z,87.20
2023-04-08T09:30:32.442Z,87.20
2023-04-08T09:33:01.460Z,87.10
2023-04-08T09:35:29.067Z,87.20
2023-04-08T09:37:56.731Z,86.70
2023-04-08T09:40:27.352Z,85.40
2023-04-08T09:42:56.283Z,84.30
2023-04-08T09:45:25.807Z,84.90
2023-04-08T09:48:24.273Z,84.90
2023-04-08T09:50:52.787Z,85.00
2023-04-08T09:53:34.398Z,85.40
2023-04-08T09:56:05.505Z,86.50
2023-04-08T09:58:59.088Z,86.20
2023-04-08T10:01:53.842Z,85.90
2023-04-08T10:04:26.546Z,86.30
2023-04-08T10:07:06.467Z,85.90
2023-04-08T10:09:34.530Z,85.90
2023-04-08T10:12:04.294Z,85.80
2023-04-08T10:14:32.617Z,85.10
2023-04-08T10:17:28.639Z,84.00
2023-04-08T10:19:58.728Z,84.70
2023-04-08T10:22:29.119Z,85.50
2023-04-08T10:25:16.850Z,85.10
2023-04-08T10:27:45.724Z,84.70
2023-04-08T10:30:28.071Z,86.30
2023-04-08T10:32:57.630Z,85.40
2023-04-08T10:35:41.977Z,84.90
2023-04-08T10:38:10.166Z,84.60
2023-04-08T10:40:39.601Z,84.40
2023-04-08T10:43:07.733Z,84.10
2023-04-08T10:45:35.591Z,84.40
2023-04-08T10:48:25.607Z,84.10
2023-04-08T10:51:04.182Z,84.60
2023-04-08T10:53:42.125Z,84.00
2023-04-08T10:56:18.791Z,84.10
2023-04-08T10:58:56.472Z,84.60
2023-04-08T11:01:24.077Z,84.10
2023-04-08T11:03:52.658Z,83.40
2023-04-08T11:06:20.621Z,83.40
2023-04-08T11:08:48.310Z,82.80
2023-04-08T11:11:15.879Z,83.30
2023-04-08T11:13:53.453Z,83.20
2023-04-08T11:16:23.258Z,82.10
2023-04-08T11:18:52.145Z,81.90
2023-04-08T11:21:19.733Z,82.00
2023-04-08T11:23:52.175Z,81.50
2023-04-08T11:26:21.230Z,82.00
2023-04-08T11:28:50.943Z,82.00
2023-04-08T11:31:23.551Z,82.40
2023-04-08T11:33:58.580Z,80.90
2023-04-08T11:36:27.371Z,81.10
2023-04-08T11:38:56.044Z,81.00
2023-04-08T11:41:23.907Z,80.10
2023-04-08T11:43:57.207Z,79.20
2023-04-08T11:46:25.204Z,78.80
2023-04-08T11:49:19.308Z,78.20
2023-04-08T11:52:00.564Z,77.50
2023-04-08T11:54:33.233Z,77.00
2023-04-08T11:57:03.032Z,76.50
2023-04-08T11:59:30.435Z,77.30
2023-04-08T12:01:59.093Z,76.00
2023-04-08T12:04:26.813Z,75.30
2023-04-08T12:06:55.375Z,73.80
2023-04-08T12:09:24.266Z,75.30
2023-04-08T12:11:51.659Z,74.10
2023-04-08T12:14:19.118Z,73.70
2023-04-08T12:16:46.725Z,71.10
2023-04-08T12:19:14.141Z,72.30
2023-04-08T12:21:41.556Z,71.40
2023-04-08T12:24:08.966Z,70.80
2023-04-08T12:26:36.429Z,70.40
2023-04-08T12:29:03.833Z,71.40
2023-04-08T12:31:32.093Z,71.10
2023-04-08T12:33:59.564Z,71.10
2023-04-08T12:36:27.420Z,71.30
2023-04-08T12:38:54.872Z,71.00
2023-04-08T12:41:22.265Z,70.90
2023-04-08T12:43:49.653Z,71.40
2023-04-08T12:46:17.052Z,70.00
2023-04-08T12:48:45.753Z,70.30
2023-04-08T12:51:14.865Z,71.40
2023-04-08T12:53:42.456Z,72.00
2023-04-08T12:56:10.409Z,70.20
2023-04-08T12:58:37.815Z,71.20
2023-04-08T13:01:06.449Z,70.90
2023-04-08T13:03:35.177Z,69.70
2023-04-08T13:06:02.919Z,68.60
2023-04-08T13:08:30.305Z,71.30
2023-04-08T13:10:57.695Z,68.40
2023-04-08T13:13:25.162Z,69.50
2023-04-08T13:15:53.054Z,70.00
2023-04-08T13:18:20.852Z,69.50
2023-04-08T13:20:48.208Z,69.60
2023-04-08T13:23:17.990Z,69.90
2023-04-08T13:25:48.468Z,70.80
2023-04-08T13:28:16.052Z,69.40
2023-04-08T13:30:43.427Z,69.10
2023-04-08T13:33:10.814Z,70.10
2023-04-08T13:35:38.226Z,69.40
2023-04-08T13:38:05.606Z,69.30
2023-04-08T13:40:33.420Z,70.70
2023-04-08T13:43:00.857Z,71.50
2023-04-08T13:45:28.260Z,71.90
2023-04-08T13:47:56.939Z,72.70
2023-04-08T13:50:24.522Z,71.80
2023-04-08T13:52:51.916Z,72.10
2023-04-08T13:55:19.929Z,72.40
2023-04-08T13:57:47.333Z,71.50
2023-04-08T14:00:15.231Z,70.20
2023-04-08T14:02:42.809Z,69.70
2023-04-08T14:05:10.474Z,69.70
2023-04-08T14:07:37.913Z,70.00
2023-04-08T14:10:06.592Z,72.00
2023-04-08T14:12:34.011Z,70.70
2023-04-08T14:15:02.920Z,71.30
2023-04-08T14:17:30.529Z,71.00
2023-04-08T14:19:59.692Z,71.10
2023-04-08T14:22:27.118Z,71.60
2023-04-08T14:24:54.536Z,70.60
2023-04-08T14:27:21.940Z,69.50
2023-04-08T14:29:49.334Z,69.80
2023-04-08T14:32:17.024Z,69.70
2023-04-08T14:34:44.853Z,72.00
2023-04-08T14:37:12.368Z,70.00
2023-04-08T14:39:39.764Z,70.10
2023-04-08T14:42:07.965Z,69.20
2023-04-08T14:44:35.485Z,68.20
2023-04-08T14:47:02.856Z,70.10
2023-04-08T14:49:30.295Z,70.80
2023-04-08T14:51:57.669Z,71.10
2023-04-08T14:54:25.041Z,69.50
2023-04-08T14:56:52.461Z,69.30
2023-04-08T14:59:19.817Z,69.90
2023-04-08T15:01:47.395Z,70.00
2023-04-08T15:04:14.903Z,70.30
2023-04-08T15:06:42.890Z,70.70
2023-04-08T15:09:10.383Z,71.80
2023-04-08T15:11:37.892Z,70.00
2023-04-08T15:14:05.531Z,70.70
2023-04-08T15:16:33.179Z,70.40
2023-04-08T15:19:00.803Z,70.30
2023-04-08T15:21:28.290Z,68.70
2023-04-08T15:23:55.875Z,68.60
2023-04-08T15:26:24.519Z,68.50
2023-04-08T15:28:54.597Z,68.80
2023-04-08T15:31:22.025Z,68.70
2023-04-08T15:33:49.632Z,68.00
2023-04-08T15:36:20.127Z,68.20
2023-04-08T15:38:48.624Z,69.10
2023-04-08T15:41:19.039Z,69.30
2023-04-08T15:43:47.054Z,68.40
2023-04-08T15:46:24.221Z,68.10
2023-04-08T15:48:52.035Z,68.80
2023-04-08T15:51:20.506Z,68.40
2023-04-08T15:53:47.987Z,69.80
2023-04-08T15:56:16.765Z,69.70
2023-04-08T15:58:46.307Z,70.10
2023-04-08T16:01:14.197Z,71.10
2023-04-08T16:03:42.242Z,70.20
2023-04-08T16:06:09.711Z,69.80
2023-04-08T16:08:37.275Z,69.90
2023-04-08T16:11:07.117Z,69.20
2023-04-08T16:13:35.049Z,69.80
2023-04-08T16:16:03.682Z,70.00
2023-04-08T16:18:31.454Z,69.90
2023-04-08T16:20:58.940Z,69.90
2023-04-08T16:23:26.616Z,69.40
2023-04-08T16:25:54.105Z,69.70
2023-04-08T16:28:22.220Z,69.60
2023-04-08T16:30:49.631Z,69.80
2023-04-08T16:33:17.100Z,69.40
2023-04-08T16:35:44.620Z,69.20
2023-04-08T16:38:12.291Z,69.90
2023-04-08T16:40:39.738Z,70.10
2023-04-08T16:43:07.274Z,69.40
2023-04-08T16:45:34.802Z,70.90
2023-04-08T16:48:02.654Z,70.80
2023-04-08T16:50:30.074Z,70.10
2023-04-08T16:52:57.765Z,70.40
2023-04-08T16:55:25.212Z,70.30
2023-04-08T16:57:52.964Z,70.40
2023-04-08T17:00:21.309Z,71.20
2023-04-08T17:02:49.080Z,71.50
2023-04-08T17:05:17.020Z,71.00
2023-04-08T17:07:45.632Z,71.30
2023-04-08T17:10:13.483Z,70.90
2023-04-08T17:12:41.734Z,71.70
2023-04-08T17:15:10.904Z,71.60
2023-04-08T17:17:38.519Z,72.60
2023-04-08T17:20:07.643Z,72.90
2023-04-08T17:22:35.075Z,72.70
2023-04-08T17:25:02.640Z,72.60
2023-04-08T17:27:30.100Z,73.40
2023-04-08T17:29:58.064Z,72.60
2023-04-08T17:32:27.958Z,72.90
2023-04-08T17:35:06.869Z,73.60
2023-04-08T17:37:36.763Z,73.60
2023-04-08T17:40:08.015Z,73.40
2023-04-08T17:42:44.820Z,73.70
2023-04-08T17:45:13.734Z,74.20
2023-04-08T17:47:44.579Z,74.60
2023-04-08T17:50:13.584Z,75.20
2023-04-08T17:52:46.855Z,76.00
2023-04-08T17:55:16.115Z,75.90
2023-04-08T17:57:45.509Z,76.70
2023-04-08T18:00:17.447Z,76.50
2023-04-08T18:02:48.918Z,77.10
2023-04-08T18:05:19.157Z,77.30
2023-04-08T18:07:48.039Z,77.70
2023-04-08T18:10:18.196Z,78.20
2023-04-08T18:12:49.014Z,77.90
2023-04-08T18:15:22.855Z,77.90
2023-04-08T18:17:56.659Z,78.40
2023-04-08T18:20:34.708Z,77.90
2023-04-08T18:23:05.509Z,78.00
2023-04-08T18:25:59.579Z,78.30
2023-04-08T18:28:31.051Z,78.70
2023-04-08T18:31:11.071Z,78.50
2023-04-08T18:33:54.266Z,78.50
2023-04-08T18:36:35.190Z,78.40
2023-04-08T18:39:12.223Z,78.50
2023-04-08T18:41:47.453Z,78.80
2023-04-08T18:44:17.580Z,79.00
2023-04-08T18:46:47.187Z,79.20
2023-04-08T18:49:38.418Z,79.20
2023-04-08T18:52:12.074Z,79.00
2023-04-08T18:54:41.102Z,79.20
2023-04-08T18:57:27.864Z,79.20
2023-04-08T18:59:56.898Z,79.30
2023-04-08T19:02:33.648Z,79.10
2023-04-08T19:05:03.172Z,78.90
2023-04-08T19:07:32.162Z,78.90
2023-04-08T19:10:01.893Z,78.90
2023-04-08T19:12:51.207Z,78.90
2023-04-08T19:15:32.074Z,78.60
2023-04-08T19:18:02.990Z,78.40
2023-04-08T19:20:32.383Z,78.50
2023-04-08T19:23:03.617Z,78.50
2023-04-08T19:25:33.206Z,79.20
2023-04-08T19:28:02.148Z,79.30
2023-04-08T19:30:30.790Z,79.60
2023-04-08T19:33:00.248Z,80.00
2023-04-08T19:35:30.180Z,80.30
2023-04-08T19:37:59.111Z,80.20
2023-04-08T19:40:28.513Z,80.50
2023-04-08T19:42:57.836Z,80.00
2023-04-08T19:45:27.740Z,80.00
2023-04-08T19:48:11.664Z,80.50
2023-04-08T19:50:42.526Z,80.90
2023-04-08T19:53:11.690Z,80.50
2023-04-08T19:55:41.135Z,80.40
2023-04-08T19:58:09.884Z,80.50
2023-04-08T20:00:39.325Z,80.80
2023-04-08T20:03:11.523Z,81.20
2023-04-08T20:05:41.556Z,81.80
2023-04-08T20:08:10.677Z,81.60
2023-04-08T20:10:46.929Z,81.90
2023-04-08T20:13:17.574Z,82.20
2023-04-08T20:15:51.103Z,82.30
2023-04-08T20:18:31.234Z,82.10
2023-04-08T20:21:09.207Z,82.30
2023-04-08T20:23:45.079Z,82.40
2023-04-08T20:26:14.422Z,82.70
2023-04-08T20:29:05.696Z,82.60
2023-04-08T20:31:40.080Z,82.40
2023-04-08T20:34:09.072Z,82.40
2023-04-08T20:36:44.282Z,82.30
2023-04-08T20:39:13.226Z,82.30
2023-04-08T20:41:41.757Z,82.60
2023-04-08T20:44:11.786Z,83.20
2023-04-08T20:46:40.666Z,82.80
2023-04-08T20:49:11.687Z,83.20
2023-04-08T20:51:42.135Z,83.70
2023-04-08T20:54:11.092Z,83.70
2023-04-08T20:56:42.965Z,83.20
2023-04-08T21:00:37.578Z,83.50
2023-04-08T21:03:06.001Z,83.80
2023-04-08T21:05:38.717Z,83.70
2023-04-08T21:08:13.148Z,83.90
2023-04-08T21:11:09.446Z,84.20
2023-04-08T21:13:51.544Z,84.30
2023-04-08T21:16:20.083Z,84.80
2023-04-08T21:19:56.587Z,84.80
2023-04-08T21:22:25.165Z,84.60
2023-04-08T21:24:53.948Z,84.30
2023-04-08T21:28:10.289Z,84.20
2023-04-08T21:31:12.652Z,84.40
2023-04-08T21:33:42.002Z,84.40
2023-04-08T21:36:11.341Z,84.90
2023-04-08T21:38:42.024Z,84.50
2023-04-08T21:41:24.723Z,84.40
2023-04-08T21:44:19.562Z,84.80
2023-04-08T21:50:46.035Z,84.90
2023-04-08T21:53:16.303Z,85.50
2023-04-08T21:56:15.322Z,86.30
2023-04-08T21:58:43.614Z,85.50
2023-04-08T22:01:15.451Z,85.90
2023-04-08T22:03:46.280Z,85.60
2023-04-08T22:09:24.474Z,85.40
2023-04-08T22:11:53.191Z,85.60
2023-04-08T22:14:24.697Z,85.40
2023-04-08T22:16:52.506Z,85.50
2023-04-08T22:19:21.130Z,85.40
